Terminal Aerodrome Forecast
Issued by NWS

Home | Current Version | Previous Version | Text Only | Print | Product List | Glossary On
Versions: 1 2 3 4 5 6 7 8 9 10 11 12
000
FTUS44 KOUN 230520
TAFPNC
TAF
KPNC 230520Z 2306/2406 14007KT P6SM BKN250
     FM231500 03014G24KT P6SM BKN040
      TEMPO 2316/2320 4SM -TSRA OVC030CB
     FM240000 02006KT P6SM SCT040 BKN100=

USA.gov is the U.S. government's official web portal to all federal, state and local government web resources and services.